createdAt,value
2023-09-08T00:16:37.056Z,101911.97
2023-09-08T00:19:05.222Z,101907.81
2023-09-08T00:21:33.020Z,101906.41
2023-09-08T00:24:02.027Z,101907.81
2023-09-08T00:26:29.800Z,101907.50
2023-09-08T00:28:57.661Z,101895.75
2023-09-08T00:31:25.546Z,101899.06
2023-09-08T00:33:54.980Z,101892.50
2023-09-08T00:36:22.742Z,101890.59
2023-09-08T00:38:51.145Z,101886.19
2023-09-08T00:41:18.823Z,101888.50
2023-09-08T00:43:46.680Z,101890.13
2023-09-08T00:46:14.644Z,101898.16
2023-09-08T00:48:43.476Z,101902.00
2023-09-08T00:51:12.744Z,101894.81
2023-09-08T00:53:40.647Z,101896.38
2023-09-08T00:56:09.163Z,101892.38
2023-09-08T00:58:37.178Z,101899.00
2023-09-08T01:18:41.580Z,101899.28
2023-09-08T01:21:24.193Z,101897.22
2023-09-08T01:23:59.755Z,101898.22
2023-09-08T01:26:33.221Z,101899.03
2023-09-08T01:29:01.799Z,101891.44
2023-09-08T01:46:24.752Z,101885.16
2023-09-08T01:48:52.765Z,101884.06
2023-09-08T01:51:21.043Z,101878.63
2023-09-08T01:53:48.877Z,101879.38
2023-09-08T01:56:16.668Z,101881.72
2023-09-08T01:58:44.536Z,101869.72
2023-09-08T02:16:22.030Z,101863.03
2023-09-08T02:18:52.940Z,101858.13
2023-09-08T02:21:20.741Z,101854.91
2023-09-08T02:23:48.593Z,101854.84
2023-09-08T02:26:16.603Z,101852.47
2023-09-08T02:28:45.248Z,101854.84
2023-09-08T02:48:50.719Z,101854.88
2023-09-08T02:51:18.628Z,101849.63
2023-09-08T02:53:46.365Z,101846.44
2023-09-08T02:56:14.026Z,101857.59
2023-09-08T02:58:41.795Z,101847.97
2023-09-08T03:18:33.754Z,101840.34
2023-09-08T03:21:09.891Z,101838.69
2023-09-08T03:23:39.659Z,101838.53
2023-09-08T03:26:07.820Z,101841.34
2023-09-08T03:28:36.491Z,101835.66
2023-09-08T03:31:05.109Z,101833.66
2023-09-08T03:33:36.887Z,101838.47
2023-09-08T03:36:06.701Z,101842.53
2023-09-08T03:38:38.004Z,101839.53
2023-09-08T03:41:05.928Z,101837.66
2023-09-08T03:43:34.012Z,101846.16
2023-09-08T03:46:03.182Z,101843.81
2023-09-08T03:48:31.070Z,101848.25
2023-09-08T03:51:00.470Z,101846.16
2023-09-08T03:53:29.113Z,101846.44
2023-09-08T03:55:57.270Z,101851.63
2023-09-08T03:58:25.120Z,101854.16
2023-09-08T04:18:22.914Z,101846.78
2023-09-08T04:20:50.880Z,101845.59
2023-09-08T04:23:18.732Z,101841.53
2023-09-08T04:25:46.479Z,101848.91
2023-09-08T04:28:14.242Z,101855.22
2023-09-08T04:30:42.100Z,101851.59
2023-09-08T04:33:10.181Z,101855.97
2023-09-08T04:35:40.348Z,101850.34
2023-09-08T04:38:08.122Z,101855.97
2023-09-08T04:40:36.165Z,101857.13
2023-09-08T04:43:04.041Z,101862.41
2023-09-08T04:45:31.922Z,101854.56
2023-09-08T04:47:59.853Z,101857.41
2023-09-08T04:50:27.743Z,101854.41
2023-09-08T04:52:56.942Z,101853.22
2023-09-08T04:55:25.571Z,101860.50
2023-09-08T04:57:53.417Z,101852.50
2023-09-08T05:00:21.230Z,101848.06
2023-09-08T05:02:49.284Z,101852.78
2023-09-08T05:05:17.366Z,101858.13
2023-09-08T05:07:46.618Z,101859.31
2023-09-08T05:10:15.727Z,101854.03
2023-09-08T05:12:44.459Z,101859.66
2023-09-08T05:15:16.395Z,101866.13
2023-09-08T05:17:48.597Z,101854.03
2023-09-08T05:20:18.065Z,101856.50
2023-09-08T05:22:46.680Z,101857.31
2023-09-08T05:25:15.935Z,101854.88
2023-09-08T05:27:43.712Z,101861.47
2023-09-08T05:30:11.849Z,101850.88
2023-09-08T05:32:39.887Z,101859.88
2023-09-08T05:35:08.050Z,101856.69
2023-09-08T05:37:35.817Z,101850.53
2023-09-08T05:40:05.683Z,101858.41
2023-09-08T05:42:34.818Z,101850.78
2023-09-08T05:45:02.693Z,101856.88
2023-09-08T05:47:30.490Z,101866.66
2023-09-08T05:49:58.706Z,101862.44
2023-09-08T05:52:29.221Z,101864.41
2023-09-08T05:54:57.670Z,101859.81
2023-09-08T05:57:25.447Z,101851.72
2023-09-08T05:59:55.138Z,101857.25
2023-09-08T06:02:23.527Z,101860.25
2023-09-08T06:04:51.358Z,101855.78
2023-09-08T06:07:19.116Z,101853.91
2023-09-08T06:09:46.954Z,101849.63
2023-09-08T06:12:15.248Z,101859.69
2023-09-08T06:14:44.030Z,101850.00
2023-09-08T06:17:14.589Z,101843.06
2023-09-08T06:19:42.881Z,101857.97
2023-09-08T06:22:10.585Z,101851.63
2023-09-08T06:24:38.325Z,101856.25
2023-09-08T06:27:06.555Z,101850.69
2023-09-08T06:29:35.378Z,101853.81
2023-09-08T06:32:03.513Z,101852.34
2023-09-08T06:34:33.400Z,101852.06
2023-09-08T06:37:01.195Z,101851.41
2023-09-08T06:39:29.102Z,101855.50
2023-09-08T06:41:57.840Z,101854.78
2023-09-08T06:44:26.032Z,101846.00
2023-09-08T06:46:53.882Z,101849.28
2023-09-08T06:49:23.533Z,101847.34
2023-09-08T06:51:52.759Z,101852.63
2023-09-08T06:54:20.710Z,101848.22
2023-09-08T06:56:48.587Z,101848.69
2023-09-08T06:59:16.611Z,101847.97
2023-09-08T07:01:44.747Z,101845.59
2023-09-08T07:04:14.530Z,101855.69
2023-09-08T07:06:44.771Z,101852.13
2023-09-08T07:09:15.396Z,101852.56
2023-09-08T07:11:45.578Z,101853.44
2023-09-08T07:14:13.464Z,101860.38
2023-09-08T07:16:41.345Z,101859.97
2023-09-08T07:19:09.601Z,101860.44
2023-09-08T07:21:38.201Z,101858.06
2023-09-08T07:24:07.055Z,101852.84
2023-09-08T07:26:36.300Z,101857.31
2023-09-08T07:29:04.329Z,101866.22
2023-09-08T07:31:32.100Z,101865.47
2023-09-08T07:34:00.405Z,101868.75
2023-09-08T07:36:28.911Z,101856.28
2023-09-08T07:38:56.766Z,101861.19
2023-09-08T07:41:24.688Z,101858.78
2023-09-08T07:43:53.927Z,101867.69
2023-09-08T07:46:25.313Z,101862.50
2023-09-08T07:48:53.167Z,101859.31
2023-09-08T07:51:20.889Z,101862.56
2023-09-08T07:53:48.777Z,101865.03
2023-09-08T07:56:16.637Z,101871.09
2023-09-08T07:58:44.482Z,101865.88
2023-09-08T08:01:14.588Z,101868.34
2023-09-08T08:03:42.538Z,101876.44
2023-09-08T08:06:10.418Z,101866.78
2023-09-08T08:08:39.517Z,101861.56
2023-09-08T08:11:10.988Z,101859.59
2023-09-08T08:13:38.673Z,101862.03
2023-09-08T08:16:06.769Z,101861.63
2023-09-08T08:18:36.461Z,101858.88
2023-09-08T08:21:04.840Z,101862.16
2023-09-08T08:23:33.732Z,101852.47
2023-09-08T08:26:02.469Z,101859.31
2023-09-08T08:28:30.260Z,101854.94
2023-09-08T08:30:58.205Z,101856.19
2023-09-08T08:33:27.026Z,101850.97
2023-09-08T08:35:56.241Z,101852.63
2023-09-08T08:38:24.302Z,101842.97
2023-09-08T08:40:52.225Z,101846.97
2023-09-08T08:43:20.481Z,101848.69
2023-09-08T08:45:48.608Z,101851.97
2023-09-08T08:48:17.843Z,101854.41
2023-09-08T08:50:45.990Z,101854.41
2023-09-08T08:53:15.594Z,101839.09
2023-09-08T08:55:44.022Z,101849.63
2023-09-08T08:58:12.140Z,101845.63
2023-09-08T09:00:40.424Z,101834.75
2023-09-08T09:03:15.663Z,101834.41
2023-09-08T09:05:48.564Z,101832.38
2023-09-08T09:08:19.479Z,101832.81
2023-09-08T09:10:47.347Z,101832.81
2023-09-08T09:13:15.066Z,101836.06
2023-09-08T09:15:42.892Z,101827.22
2023-09-08T09:18:10.942Z,101836.50
2023-09-08T09:20:42.452Z,101835.31
2023-09-08T09:23:11.480Z,101836.13
2023-09-08T09:25:41.737Z,101836.13
2023-09-08T09:28:09.641Z,101838.56
2023-09-08T09:30:48.950Z,101833.75
2023-09-08T09:33:17.316Z,101824.91
2023-09-08T09:35:46.149Z,101838.63
2023-09-08T09:38:14.223Z,101831.44
2023-09-08T09:40:43.420Z,101833.06
2023-09-08T09:43:12.611Z,101821.38
2023-09-08T09:45:41.283Z,101829.91
2023-09-08T09:48:10.255Z,101824.25
2023-09-08T09:50:39.810Z,101823.06
2023-09-08T09:53:10.440Z,101812.19
2023-09-08T09:55:39.157Z,101813.81
2023-09-08T09:58:08.411Z,101817.09
2023-09-08T10:00:38.373Z,101813.88
2023-09-08T10:03:06.750Z,101805.00
2023-09-08T10:05:35.699Z,101805.00
2023-09-08T10:08:03.562Z,101805.47
2023-09-08T10:10:32.544Z,101798.59
2023-09-08T10:13:05.234Z,101797.41
2023-09-08T10:15:34.863Z,101800.66
2023-09-08T10:18:06.055Z,101799.47
2023-09-08T10:20:35.301Z,101789.78
2023-09-08T10:23:22.586Z,101797.88
2023-09-08T10:26:00.179Z,101790.22
2023-09-08T10:28:29.378Z,101785.03
2023-09-08T10:30:58.824Z,101787.47
2023-09-08T10:33:27.537Z,101778.59
2023-09-08T10:35:56.151Z,101773.75
2023-09-08T10:38:25.000Z,101770.53
2023-09-08T10:40:52.766Z,101773.81
2023-09-08T10:43:20.993Z,101768.16
2023-09-08T10:45:49.445Z,101775.44
2023-09-08T10:48:18.624Z,101765.75
2023-09-08T10:50:46.462Z,101774.22
2023-09-08T10:53:18.328Z,101773.47
2023-09-08T10:55:54.141Z,101760.97
2023-09-08T10:58:32.404Z,101762.16
2023-09-08T11:01:02.284Z,101769.06
2023-09-08T11:03:45.269Z,101775.50
2023-09-08T11:06:13.901Z,101771.53
2023-09-08T11:08:44.002Z,101764.69
2023-09-08T11:11:12.901Z,101765.09
2023-09-08T11:13:41.955Z,101771.16
2023-09-08T11:16:10.098Z,101771.56
2023-09-08T11:18:39.688Z,101772.38
2023-09-08T11:21:09.577Z,101768.34
2023-09-08T11:23:37.527Z,101761.53
2023-09-08T11:26:05.512Z,101770.81
2023-09-08T11:28:33.457Z,101753.47
2023-09-08T11:31:01.493Z,101762.38
2023-09-08T11:33:29.287Z,101756.38
2023-09-08T11:35:59.324Z,101751.53
2023-09-08T11:38:27.976Z,101753.19
2023-09-08T11:40:55.973Z,101755.63
2023-09-08T11:43:23.872Z,101749.56
2023-09-08T11:45:51.875Z,101752.00
2023-09-08T11:48:19.668Z,101752.81
2023-09-08T11:50:47.398Z,101752.06
2023-09-08T11:53:21.001Z,101747.66
2023-09-08T11:55:49.102Z,101737.16
2023-09-08T11:58:17.035Z,101738.38
2023-09-08T12:00:45.430Z,101738.81
2023-09-08T12:03:13.488Z,101740.44
2023-09-08T12:05:42.200Z,101726.72
2023-09-08T12:08:10.056Z,101730.78
2023-09-08T12:10:42.476Z,101719.88
2023-09-08T12:13:11.429Z,101721.06
2023-09-08T12:15:40.161Z,101721.06
2023-09-08T12:18:09.049Z,101717.03
2023-09-08T12:20:37.602Z,101713.78
2023-09-08T12:23:06.061Z,101721.94
2023-09-08T12:25:36.256Z,101714.72
2023-09-08T12:28:07.862Z,101706.22
2023-09-08T12:30:35.758Z,101710.72
2023-09-08T12:33:04.443Z,101707.50
2023-09-08T12:35:33.107Z,101703.47
2023-09-08T12:38:02.014Z,101699.44
2023-09-08T12:40:30.686Z,101693.00
2023-09-08T12:43:01.637Z,101694.22
2023-09-08T12:45:38.296Z,101689.00
2023-09-08T12:48:08.027Z,101697.09
2023-09-08T12:50:36.064Z,101686.19
2023-09-08T12:53:03.819Z,101688.25
2023-09-08T12:55:31.640Z,101687.84
2023-09-08T12:57:59.387Z,101675.00
2023-09-08T13:00:28.534Z,101683.50
2023-09-08T13:02:57.777Z,101672.97
2023-09-08T13:05:25.754Z,101674.63
2023-09-08T13:07:53.557Z,101667.38
2023-09-08T13:10:21.527Z,101675.03
2023-09-08T13:12:50.042Z,101668.63
2023-09-08T13:15:17.846Z,101667.41
2023-09-08T13:17:46.051Z,101673.47
2023-09-08T13:20:15.208Z,101659.72
2023-09-08T13:22:43.134Z,101656.91
2023-09-08T13:25:11.003Z,101656.13
2023-09-08T13:27:38.863Z,101648.03
2023-09-08T13:30:10.201Z,101654.16
2023-09-08T13:32:38.065Z,101644.03
2023-09-08T13:35:06.378Z,101644.84
2023-09-08T13:37:36.280Z,101642.47
2023-09-08T13:40:05.260Z,101644.06
2023-09-08T13:42:33.488Z,101638.41
2023-09-08T13:45:01.778Z,101638.81
2023-09-08T13:47:30.223Z,101636.00
2023-09-08T13:49:59.124Z,101640.44
2023-09-08T13:52:28.455Z,101636.84
2023-09-08T13:57:33.972Z,101631.16
2023-09-08T14:00:04.633Z,101628.75
2023-09-08T14:02:43.359Z,101623.50
2023-09-08T14:05:15.403Z,101620.69
2023-09-08T14:07:47.485Z,101625.13
2023-09-08T14:12:55.127Z,101623.03
2023-09-08T14:15:23.110Z,101627.09
2023-09-08T14:17:50.876Z,101622.22
2023-09-08T14:20:18.873Z,101621.41
2023-09-08T14:22:46.834Z,101614.13
2023-09-08T14:25:14.914Z,101621.41
2023-09-08T14:27:44.017Z,101625.88
2023-09-08T14:30:12.036Z,101618.19
2023-09-08T14:32:39.990Z,101614.94
2023-09-08T14:35:08.231Z,101610.09
2023-09-08T14:37:36.021Z,101614.94
2023-09-08T14:40:04.088Z,101618.19
2023-09-08T14:42:31.851Z,101612.53
2023-09-08T14:45:00.990Z,101609.69
2023-09-08T14:47:28.808Z,101610.88
2023-09-08T14:49:57.878Z,101606.84
2023-09-08T14:52:25.743Z,101610.09
2023-09-08T14:54:53.485Z,101611.72
2023-09-08T14:57:21.224Z,101608.50
2023-09-08T14:59:49.382Z,101602.88
2023-09-08T15:02:18.692Z,101595.59
2023-09-08T15:04:46.420Z,101604.91
2023-09-08T15:07:14.116Z,101602.88
2023-09-08T15:09:41.830Z,101604.50
2023-09-08T15:12:09.657Z,101605.34
2023-09-08T15:14:37.393Z,101606.16
2023-09-08T15:17:05.359Z,101604.50
2023-09-08T15:19:34.501Z,101597.25
2023-09-08T15:22:02.208Z,101602.09
2023-09-08T15:24:29.892Z,101598.06
2023-09-08T15:26:58.245Z,101596.44
2023-09-08T15:29:26.034Z,101595.22
2023-09-08T15:31:53.880Z,101587.53
2023-09-08T15:34:21.725Z,101590.78
2023-09-08T15:36:50.869Z,101594.00
2023-09-08T15:39:18.636Z,101585.97
2023-09-08T15:41:46.553Z,101592.81
2023-09-08T15:44:15.172Z,101583.50
2023-09-08T15:46:42.966Z,101577.00
2023-09-08T15:49:10.799Z,101579.41
2023-09-08T15:51:38.785Z,101576.16
2023-09-08T15:54:08.253Z,101566.84
2023-09-08T15:56:35.996Z,101582.22
2023-09-08T15:59:03.752Z,101574.13
2023-09-08T16:01:31.563Z,101570.09
2023-09-08T16:03:59.725Z,101572.91
2023-09-08T16:06:27.694Z,101569.66
2023-09-08T16:08:55.859Z,101569.66
2023-09-08T16:11:25.001Z,101570.88
2023-09-08T16:13:52.927Z,101575.31
2023-09-08T16:16:20.675Z,101560.75
2023-09-08T16:18:48.447Z,101560.38
2023-09-08T16:21:16.168Z,101559.59
2023-09-08T16:23:43.959Z,101558.78
2023-09-08T16:26:12.003Z,101551.91
2023-09-08T16:28:41.299Z,101551.50
2023-09-08T16:31:09.893Z,101556.78
2023-09-08T16:33:37.995Z,101553.94
2023-09-08T16:36:06.126Z,101547.06
2023-09-08T16:38:35.865Z,101545.47
2023-09-08T16:41:03.619Z,101550.28
2023-09-08T16:43:31.527Z,101547.06
2023-09-08T16:46:00.755Z,101548.66
2023-09-08T16:48:28.530Z,101555.19
2023-09-08T16:50:56.290Z,101550.31
2023-09-08T16:53:24.060Z,101550.28
2023-09-08T16:55:51.788Z,101551.91
2023-09-08T16:58:19.662Z,101552.28
2023-09-08T17:00:47.377Z,101555.13
2023-09-08T17:03:16.576Z,101552.72
2023-09-08T17:05:44.438Z,101555.97
2023-09-08T17:08:12.133Z,101550.69
2023-09-08T17:10:39.898Z,101563.25
2023-09-08T17:13:08.043Z,101554.78
2023-09-08T17:15:35.810Z,101556.78
2023-09-08T17:18:03.695Z,101556.78
2023-09-08T17:20:33.082Z,101555.97
2023-09-08T17:23:02.478Z,101561.66
2023-09-08T17:25:30.444Z,101567.28
2023-09-08T17:27:58.167Z,101567.28
2023-09-08T17:30:26.060Z,101569.75
2023-09-08T17:32:53.854Z,101568.13
2023-09-08T17:35:22.051Z,101576.63
2023-09-08T17:37:51.203Z,101584.28
2023-09-08T17:40:19.187Z,101573.78
2023-09-08T17:42:47.285Z,101572.97
2023-09-08T17:45:15.045Z,101567.31
2023-09-08T17:47:42.863Z,101571.34
2023-09-08T17:50:11.211Z,101575.41
2023-09-08T17:52:38.949Z,101568.91
2023-09-08T17:55:08.661Z,101568.09
2023-09-08T17:57:36.808Z,101564.84
2023-09-08T18:00:06.067Z,101568.91
2023-09-08T18:02:35.555Z,101568.50
2023-09-08T18:05:03.500Z,101568.91
2023-09-08T18:07:32.295Z,101576.59
2023-09-08T18:10:00.192Z,101565.66
2023-09-08T18:12:29.382Z,101582.66
2023-09-08T18:14:57.151Z,101577.00
2023-09-08T18:17:24.914Z,101570.53
2023-09-08T18:19:53.536Z,101571.31
2023-09-08T18:22:21.371Z,101577.00
2023-09-08T18:24:49.343Z,101564.03
2023-09-08T18:27:17.169Z,101568.09
2023-09-08T18:29:48.591Z,101565.66
2023-09-08T18:32:16.601Z,101561.22
2023-09-08T18:34:44.939Z,101552.72
2023-09-08T18:37:12.673Z,101558.38
2023-09-08T18:39:40.447Z,101557.56
2023-09-08T18:42:08.257Z,101555.94
2023-09-08T18:44:40.734Z,101562.44
2023-09-08T18:47:10.010Z,101566.44
2023-09-08T18:49:37.766Z,101560.78
2023-09-08T18:52:05.874Z,101554.31
2023-09-08T18:54:33.690Z,101555.13
2023-09-08T18:57:01.452Z,101560.78
2023-09-08T18:59:29.150Z,101556.34
2023-09-08T19:01:57.595Z,101564.03
2023-09-08T19:04:26.786Z,101562.44
2023-09-08T19:06:56.327Z,101572.09
2023-09-08T19:09:24.041Z,101563.63
2023-09-08T19:11:51.801Z,101574.53
2023-09-08T19:14:23.878Z,101581.00
2023-09-08T19:16:53.249Z,101578.56
2023-09-08T19:19:22.298Z,101574.94
2023-09-08T19:21:51.496Z,101580.97
2023-09-08T19:24:20.109Z,101581.78
2023-09-08T19:26:48.111Z,101578.53
2023-09-08T19:29:15.957Z,101573.69
2023-09-08T19:31:43.688Z,101576.91
2023-09-08T19:34:11.509Z,101572.03
2023-09-08T19:36:39.752Z,101576.84
2023-09-08T19:39:09.998Z,101578.47
2023-09-08T19:41:38.346Z,101587.38
2023-09-08T19:44:06.611Z,101589.81
2023-09-08T19:46:36.408Z,101580.06
2023-09-08T19:49:04.421Z,101578.84
2023-09-08T19:51:32.258Z,101580.03
2023-09-08T19:54:01.383Z,101580.44
2023-09-08T19:56:30.508Z,101579.19
2023-09-08T19:58:59.237Z,101587.19
2023-09-08T20:01:28.171Z,101584.34
2023-09-08T20:03:55.948Z,101582.75
2023-09-08T20:06:23.739Z,101579.09
2023-09-08T20:08:51.480Z,101577.47
2023-09-08T20:11:19.221Z,101576.66
2023-09-08T20:13:48.363Z,101573.34
2023-09-08T20:16:16.242Z,101574.53
2023-09-08T20:18:44.198Z,101567.16
2023-09-08T20:21:12.105Z,101576.09
2023-09-08T20:23:40.094Z,101577.31
2023-09-08T20:26:08.105Z,101568.38
2023-09-08T20:28:35.896Z,101575.66
2023-09-08T20:31:16.213Z,101579.69
2023-09-08T20:33:44.510Z,101573.59
2023-09-08T20:36:12.345Z,101572.00
2023-09-08T20:38:40.161Z,101571.16
2023-09-08T20:41:09.996Z,101572.78
2023-09-08T20:43:37.978Z,101580.50
2023-09-08T20:46:07.758Z,101579.72
2023-09-08T20:48:36.207Z,101582.97
2023-09-08T20:51:05.605Z,101580.13
2023-09-08T20:56:01.747Z,101584.50
2023-09-08T20:58:29.432Z,101588.91
2023-09-08T21:00:58.033Z,101584.84
2023-09-08T21:03:27.146Z,101582.78
2023-09-08T21:05:54.937Z,101585.94
2023-09-08T21:08:23.009Z,101589.19
2023-09-08T21:10:50.713Z,101585.09
2023-09-08T21:13:18.728Z,101575.75
2023-09-08T21:15:49.569Z,101573.28
2023-09-08T21:18:17.385Z,101571.66
2023-09-08T21:20:46.565Z,101576.56
2023-09-08T21:23:14.414Z,101573.72
2023-09-08T21:25:42.133Z,101577.75
2023-09-08T21:28:09.893Z,101576.50
2023-09-08T21:30:37.683Z,101569.44
2023-09-08T21:33:05.808Z,101572.06
2023-09-08T21:35:33.681Z,101571.59
2023-09-08T21:38:02.918Z,101566.63
2023-09-08T21:40:30.606Z,101571.34
2023-09-08T21:42:58.686Z,101566.44
2023-09-08T21:45:26.454Z,101566.44
2023-09-08T21:47:54.241Z,101561.75
2023-09-08T21:50:22.832Z,101555.63
2023-09-08T21:52:53.630Z,101562.88
2023-09-08T21:55:23.234Z,101559.09
2023-09-08T21:57:50.935Z,101557.66
2023-09-08T22:00:22.180Z,101564.88
2023-09-08T22:02:50.493Z,101560.91
2023-09-08T22:05:18.590Z,101563.31
2023-09-08T22:07:46.320Z,101565.69
2023-09-08T22:10:14.053Z,101566.38
2023-09-08T22:12:43.612Z,101568.69
2023-09-08T22:15:11.670Z,101571.22
2023-09-08T22:17:39.494Z,101565.38
2023-09-08T22:20:13.922Z,101565.41
2023-09-08T22:22:41.985Z,101567.91
2023-09-08T22:25:10.424Z,101560.63
2023-09-08T22:27:38.610Z,101565.09
2023-09-08T22:30:09.337Z,101568.78
2023-09-08T22:32:37.550Z,101554.25
2023-09-08T22:35:06.275Z,101563.88
2023-09-08T22:37:34.106Z,101562.72
2023-09-08T22:40:01.988Z,101565.97
2023-09-08T22:42:29.758Z,101555.81
2023-09-08T22:44:57.490Z,101563.88
2023-09-08T22:47:26.646Z,101567.88
2023-09-08T22:49:58.227Z,101563.41
2023-09-08T22:52:26.080Z,101554.84
2023-09-08T22:55:00.101Z,101562.47
2023-09-08T22:57:37.247Z,101554.03
2023-09-08T23:17:16.025Z,101558.97
2023-09-08T23:19:43.716Z,101564.81
2023-09-08T23:22:11.444Z,101558.41
2023-09-08T23:24:39.209Z,101558.28
2023-09-08T23:27:06.901Z,101555.94
2023-09-08T23:29:34.600Z,101559.97
2023-09-08T23:32:02.347Z,101555.16
2023-09-08T23:34:32.028Z,101555.97
2023-09-08T23:36:59.762Z,101558.28
2023-09-08T23:39:27.514Z,101555.78
2023-09-08T23:41:55.325Z,101554.97
2023-09-08T23:44:23.738Z,101545.28
2023-09-08T23:46:51.501Z,101546.28
2023-09-08T23:49:19.362Z,101550.66
2023-09-08T23:51:48.412Z,101545.63
2023-09-08T23:54:16.446Z,101548.03
2023-09-08T23:56:44.243Z,101547.72
2023-09-08T23:59:12.075Z,101529.91
